createdAt,value
2019-05-11T00:00:06.008Z,12.50
2019-05-11T00:03:30.143Z,12.61
2019-05-11T00:06:53.250Z,12.61
2019-05-11T00:10:16.410Z,12.52
2019-05-11T00:13:39.475Z,12.72
2019-05-11T00:17:02.565Z,12.57
2019-05-11T00:20:26.172Z,12.76
2019-05-11T00:23:49.190Z,12.76
2019-05-11T00:27:12.301Z,12.80
2019-05-11T00:30:35.466Z,12.76
2019-05-11T00:33:58.641Z,12.82
2019-05-11T00:37:21.633Z,12.70
2019-05-11T00:40:44.680Z,12.82
2019-05-11T00:44:07.818Z,12.81
2019-05-11T00:47:30.799Z,12.86
2019-05-11T00:50:53.873Z,12.93
2019-05-11T00:54:17.001Z,12.83
2019-05-11T00:57:40.697Z,12.75
2019-05-11T01:01:03.920Z,12.78
2019-05-11T01:04:27.507Z,12.84
2019-05-11T01:07:50.558Z,12.82
2019-05-11T01:11:13.619Z,12.84
2019-05-11T01:14:36.660Z,12.87
2019-05-11T01:17:59.650Z,12.81
2019-05-11T01:21:22.654Z,12.74
2019-05-11T01:24:45.687Z,12.76
2019-05-11T01:28:09.816Z,12.76
2019-05-11T01:31:32.888Z,12.75
2019-05-11T01:34:56.021Z,12.69
2019-05-11T01:38:19.036Z,12.72
2019-05-11T01:41:43.249Z,12.73
2019-05-11T01:45:06.696Z,12.63
2019-05-11T01:48:31.482Z,12.71
2019-05-11T01:51:54.505Z,12.76
2019-05-11T01:55:18.021Z,12.73
2019-05-11T01:58:41.020Z,12.71
2019-05-11T02:02:04.059Z,12.46
2019-05-11T02:05:27.843Z,12.64
2019-05-11T02:08:50.822Z,12.72
2019-05-11T02:12:14.143Z,12.57
2019-05-11T02:15:37.571Z,12.78
2019-05-11T02:19:00.529Z,12.81
2019-05-11T02:22:23.607Z,12.75
2019-05-11T02:25:46.649Z,12.90
2019-05-11T02:29:09.672Z,12.77
2019-05-11T02:32:32.647Z,12.76
2019-05-11T02:35:55.711Z,12.66
2019-05-11T02:39:18.711Z,12.58
2019-05-11T02:42:41.824Z,12.62
2019-05-11T02:46:04.860Z,12.62
2019-05-11T02:49:28.396Z,12.63
2019-05-11T02:52:51.664Z,12.53
2019-05-11T02:56:14.658Z,12.60
2019-05-11T02:59:37.637Z,12.50
2019-05-11T03:03:00.775Z,12.50
2019-05-11T03:06:24.179Z,12.51
2019-05-11T03:09:47.275Z,12.58
2019-05-11T03:13:10.267Z,12.54
2019-05-11T03:16:33.492Z,12.54
2019-05-11T03:19:56.605Z,12.50
2019-05-11T03:23:19.589Z,12.55
2019-05-11T03:26:42.847Z,12.45
2019-05-11T03:30:06.700Z,12.47
2019-05-11T03:33:29.691Z,12.49
2019-05-11T03:36:52.790Z,12.52
2019-05-11T03:40:15.916Z,12.44
2019-05-11T03:43:38.966Z,12.40
2019-05-11T03:47:01.948Z,12.41
2019-05-11T03:50:25.343Z,12.39
2019-05-11T03:53:48.414Z,12.43
2019-05-11T03:57:11.738Z,12.34
2019-05-11T04:00:34.734Z,12.38
2019-05-11T04:03:57.759Z,12.41
2019-05-11T04:07:21.866Z,12.25
2019-05-11T04:10:44.881Z,12.43
2019-05-11T04:14:08.152Z,12.54
2019-05-11T04:17:31.220Z,12.36
2019-05-11T04:20:54.646Z,12.45
2019-05-11T04:24:17.642Z,12.43
2019-05-11T04:27:40.643Z,12.62
2019-05-11T04:31:03.636Z,12.57
2019-05-11T04:34:26.668Z,12.44
2019-05-11T04:37:49.772Z,12.50
2019-05-11T04:41:12.749Z,12.62
2019-05-11T04:44:35.856Z,12.57
2019-05-11T04:47:58.870Z,12.68
2019-05-11T04:51:21.888Z,12.72
2019-05-11T04:54:44.989Z,12.50
2019-05-11T04:58:07.998Z,12.70
2019-05-11T05:01:31.161Z,12.70
2019-05-11T05:04:54.132Z,12.82
2019-05-11T05:08:21.199Z,12.81
2019-05-11T05:11:42.051Z,12.88
2019-05-11T05:15:06.031Z,12.88
2019-05-11T05:18:29.048Z,12.90
2019-05-11T05:21:53.212Z,12.94
2019-05-11T05:25:16.201Z,12.83
2019-05-11T05:28:39.499Z,12.88
2019-05-11T05:32:02.513Z,12.91
2019-05-11T05:35:25.542Z,12.78
2019-05-11T05:38:48.584Z,12.92
2019-05-11T05:42:11.844Z,12.96
2019-05-11T05:45:34.819Z,12.79
2019-05-11T05:48:57.842Z,13.00
2019-05-11T05:52:20.865Z,13.03
2019-05-11T05:55:44.345Z,13.20
2019-05-11T05:59:23.617Z,13.19
2019-05-11T06:02:48.068Z,13.24
2019-05-11T06:06:12.497Z,13.51
2019-05-11T06:09:35.567Z,13.65
2019-05-11T06:12:58.617Z,13.62
2019-05-11T06:16:21.753Z,13.78
2019-05-11T06:19:44.765Z,13.93
2019-05-11T06:23:07.904Z,13.91
2019-05-11T06:26:31.029Z,13.55
2019-05-11T06:29:54.098Z,13.84
2019-05-11T06:33:17.142Z,13.89
2019-05-11T06:36:40.158Z,14.10
2019-05-11T06:40:04.149Z,14.36
2019-05-11T06:43:27.531Z,14.22
2019-05-11T06:46:50.571Z,14.28
2019-05-11T06:50:13.981Z,14.37
2019-05-11T06:53:37.346Z,14.43
2019-05-11T06:57:00.354Z,14.38
2019-05-11T07:00:23.350Z,14.33
2019-05-11T07:03:46.360Z,14.69
2019-05-11T07:07:09.408Z,14.22
2019-05-11T07:10:32.882Z,14.53
2019-05-11T07:13:55.891Z,14.67
2019-05-11T07:17:19.882Z,15.14
2019-05-11T07:20:50.636Z,15.25
2019-05-11T07:24:07.890Z,14.99
2019-05-11T07:27:30.922Z,15.01
2019-05-11T07:30:54.347Z,15.12
2019-05-11T07:34:18.524Z,14.90
2019-05-11T07:37:41.625Z,15.22
2019-05-11T07:41:08.608Z,15.38
2019-05-11T07:44:38.333Z,15.23
2019-05-11T07:47:58.781Z,15.40
2019-05-11T07:51:21.294Z,15.45
2019-05-11T07:54:49.984Z,15.71
2019-05-11T07:58:11.115Z,15.82
2019-05-11T08:01:34.685Z,15.75
2019-05-11T08:04:58.683Z,16.54
2019-05-11T08:08:24.956Z,16.24
2019-05-11T08:11:47.801Z,17.07
2019-05-11T08:15:13.786Z,17.11
2019-05-11T08:18:38.729Z,16.63
2019-05-11T08:22:03.048Z,16.75
2019-05-11T08:25:28.505Z,16.26
2019-05-11T08:28:51.131Z,16.60
2019-05-11T08:32:14.165Z,16.29
2019-05-11T08:35:38.937Z,17.36
2019-05-11T08:39:02.486Z,16.92
2019-05-11T08:42:28.677Z,16.38
2019-05-11T08:45:50.988Z,16.70
2019-05-11T08:49:15.746Z,17.25
2019-05-11T08:52:39.521Z,17.84
2019-05-11T08:56:02.531Z,17.88
2019-05-11T08:59:27.776Z,18.11
2019-05-11T09:02:51.151Z,18.95
2019-05-11T09:06:14.363Z,18.90
2019-05-11T09:09:38.118Z,18.37
2019-05-11T09:13:01.487Z,18.34
2019-05-11T09:16:24.734Z,18.91
2019-05-11T09:19:48.171Z,19.87
2019-05-11T09:23:12.524Z,20.11
2019-05-11T09:26:35.512Z,19.33
2019-05-11T09:29:59.027Z,18.65
2019-05-11T09:33:22.191Z,18.60
2019-05-11T09:36:45.292Z,18.69
2019-05-11T09:40:08.482Z,18.33
2019-05-11T09:43:31.618Z,17.78
2019-05-11T09:46:54.692Z,17.62
2019-05-11T09:50:18.172Z,17.95
2019-05-11T09:53:41.300Z,17.26
2019-05-11T09:57:04.448Z,17.73
2019-05-11T10:00:29.449Z,19.44
2019-05-11T10:03:52.747Z,18.98
2019-05-11T10:07:17.934Z,19.35
2019-05-11T10:10:40.786Z,17.77
2019-05-11T10:14:03.927Z,17.73
2019-05-11T10:17:28.814Z,18.45
2019-05-11T10:20:51.964Z,19.14
2019-05-11T10:24:15.086Z,18.33
2019-05-11T10:27:38.523Z,19.00
2019-05-11T10:31:02.252Z,19.47
2019-05-11T10:34:25.685Z,19.97
2019-05-11T10:37:48.778Z,19.26
2019-05-11T10:41:11.802Z,20.09
2019-05-11T10:44:35.055Z,20.94
2019-05-11T10:48:00.993Z,19.65
2019-05-11T10:51:23.102Z,19.98
2019-05-11T10:54:47.815Z,22.01
2019-05-11T10:58:11.065Z,22.82
2019-05-11T11:01:34.340Z,22.70
2019-05-11T11:04:58.828Z,22.19
2019-05-11T11:08:22.333Z,21.84
2019-05-11T11:11:49.046Z,21.98
2019-05-11T11:15:12.306Z,21.31
2019-05-11T11:18:37.965Z,21.67
2019-05-11T11:22:28.453Z,21.71
2019-05-11T11:25:25.826Z,20.89
2019-05-11T11:28:50.848Z,21.00
2019-05-11T11:32:13.882Z,19.49
2019-05-11T11:35:38.481Z,20.53
2019-05-11T11:39:02.077Z,21.27
2019-05-11T11:42:25.631Z,22.76
2019-05-11T11:45:48.690Z,22.52
2019-05-11T11:49:11.789Z,21.38
2019-05-11T11:52:34.817Z,21.84
2019-05-11T11:55:58.789Z,23.38
2019-05-11T11:59:21.816Z,24.30
2019-05-11T12:02:45.121Z,23.96
2019-05-11T12:06:08.784Z,22.74
2019-05-11T12:09:32.220Z,21.42
2019-05-11T12:12:55.341Z,19.74
2019-05-11T12:16:18.400Z,21.55
2019-05-11T12:19:41.509Z,21.51
2019-05-11T12:23:04.984Z,20.23
2019-05-11T12:26:28.295Z,20.28
2019-05-11T12:29:51.315Z,21.30
2019-05-11T12:33:14.299Z,23.08
2019-05-11T12:36:38.755Z,25.94
2019-05-11T12:40:02.007Z,23.88
2019-05-11T12:43:24.973Z,22.09
2019-05-11T12:46:48.870Z,22.56
2019-05-11T12:50:12.770Z,24.32
2019-05-11T12:53:37.861Z,25.40
2019-05-11T12:57:00.788Z,24.92
2019-05-11T13:00:23.840Z,23.85
2019-05-11T13:03:49.001Z,22.40
2019-05-11T13:07:11.769Z,22.18
2019-05-11T13:10:34.833Z,21.84
2019-05-11T13:13:58.494Z,21.79
2019-05-11T13:17:34.149Z,21.18
2019-05-11T13:20:48.201Z,21.63
2019-05-11T13:24:11.710Z,23.31
2019-05-11T13:27:35.496Z,23.99
2019-05-11T13:30:58.611Z,25.75
2019-05-11T13:34:21.772Z,26.82
2019-05-11T13:37:44.876Z,24.67
2019-05-11T13:41:08.150Z,25.54
2019-05-11T13:44:31.347Z,26.77
2019-05-11T13:47:56.111Z,24.57
2019-05-11T13:51:19.582Z,22.81
2019-05-11T13:54:43.261Z,20.66
2019-05-11T13:58:08.297Z,18.84
2019-05-11T14:01:31.550Z,18.35
2019-05-11T14:04:54.755Z,19.35
2019-05-11T14:08:18.523Z,20.78
2019-05-11T14:11:44.927Z,22.76
2019-05-11T14:15:08.622Z,22.59
2019-05-11T14:18:32.401Z,22.34
2019-05-11T14:21:55.435Z,21.18
2019-05-11T14:25:18.936Z,19.97
2019-05-11T14:28:42.234Z,20.99
2019-05-11T14:32:05.333Z,24.20
2019-05-11T14:35:28.617Z,26.79
2019-05-11T14:38:51.864Z,27.84
2019-05-11T14:42:14.879Z,26.81
2019-05-11T14:45:38.206Z,28.52
2019-05-11T14:49:01.597Z,30.50
2019-05-11T14:52:25.003Z,28.13
2019-05-11T14:55:48.965Z,26.44
2019-05-11T14:59:12.283Z,26.20
2019-05-11T15:02:49.386Z,25.72
2019-05-11T15:06:12.802Z,24.15
2019-05-11T15:09:37.680Z,24.67
2019-05-11T15:13:01.244Z,22.82
2019-05-11T15:16:24.333Z,23.68
2019-05-11T15:19:48.829Z,21.88
2019-05-11T15:23:12.548Z,23.56
2019-05-11T15:26:37.955Z,24.99
2019-05-11T15:30:01.285Z,22.90
2019-05-11T15:33:24.289Z,22.49
2019-05-11T15:36:48.989Z,20.89
2019-05-11T15:40:14.163Z,20.25
2019-05-11T15:43:38.778Z,21.29
2019-05-11T15:47:02.325Z,24.93
2019-05-11T15:50:28.434Z,27.72
2019-05-11T15:53:51.409Z,26.75
2019-05-11T15:57:14.512Z,28.02
2019-05-11T16:00:39.965Z,30.01
2019-05-11T16:04:02.969Z,30.74
2019-05-11T16:07:28.153Z,32.40
2019-05-11T16:10:52.708Z,30.40
2019-05-11T16:14:15.883Z,31.68
2019-05-11T16:17:40.306Z,32.04
2019-05-11T16:21:03.610Z,32.15
2019-05-11T16:24:27.232Z,30.19
2019-05-11T16:27:50.504Z,29.14
2019-05-11T16:31:13.657Z,25.95
2019-05-11T16:34:38.165Z,27.19
2019-05-11T16:38:01.368Z,26.45
2019-05-11T16:41:28.879Z,26.34
2019-05-11T16:44:51.413Z,26.25
2019-05-11T16:48:14.474Z,25.99
2019-05-11T16:51:38.861Z,25.21
2019-05-11T16:55:02.162Z,25.68
2019-05-11T16:58:27.688Z,25.68
2019-05-11T17:01:50.437Z,24.76
2019-05-11T17:05:25.338Z,23.77
2019-05-11T17:08:39.004Z,23.13
2019-05-11T17:12:02.143Z,21.31
2019-05-11T17:15:25.409Z,21.36
2019-05-11T17:18:49.302Z,20.48
2019-05-11T17:22:12.357Z,20.38
2019-05-11T17:25:37.777Z,20.28
2019-05-11T17:29:00.413Z,19.96
2019-05-11T17:32:23.426Z,19.58
2019-05-11T17:35:47.997Z,19.46
2019-05-11T17:39:11.344Z,19.17
2019-05-11T17:42:34.408Z,19.30
2019-05-11T17:45:58.530Z,18.23
2019-05-11T17:49:21.904Z,18.79
2019-05-11T17:52:45.068Z,18.97
2019-05-11T17:56:09.152Z,18.96
2019-05-11T17:59:32.300Z,18.66
2019-05-11T18:02:58.188Z,18.51
2019-05-11T18:06:20.671Z,18.25
2019-05-11T18:09:44.261Z,18.32
2019-05-11T18:13:07.809Z,18.38
2019-05-11T18:16:30.816Z,17.86
2019-05-11T18:19:54.230Z,17.69
2019-05-11T18:23:17.770Z,17.76
2019-05-11T18:26:40.847Z,17.53
2019-05-11T18:30:04.073Z,17.30
2019-05-11T18:33:27.840Z,17.30
2019-05-11T18:36:51.498Z,17.03
2019-05-11T18:40:14.691Z,16.80
2019-05-11T18:43:37.931Z,17.06
2019-05-11T18:47:01.043Z,16.76
2019-05-11T18:50:30.441Z,16.78
2019-05-11T18:53:49.982Z,16.86
2019-05-11T18:57:13.001Z,16.64
2019-05-11T19:00:38.127Z,16.49
2019-05-11T19:04:01.127Z,16.43
2019-05-11T19:07:24.196Z,16.28
2019-05-11T19:10:48.769Z,16.07
2019-05-11T19:14:12.062Z,15.81
2019-05-11T19:17:35.337Z,15.73
2019-05-11T19:20:58.853Z,15.34
2019-05-11T19:24:22.054Z,15.50
2019-05-11T19:27:45.547Z,15.50
2019-05-11T19:31:11.260Z,15.19
2019-05-11T19:34:34.007Z,15.06
2019-05-11T19:37:57.845Z,14.68
2019-05-11T19:41:23.641Z,15.45
2019-05-11T19:44:47.898Z,15.28
2019-05-11T19:48:11.580Z,15.07
2019-05-11T19:51:34.759Z,15.09
2019-05-11T19:54:58.624Z,15.03
2019-05-11T19:58:21.718Z,14.31
2019-05-11T20:01:44.766Z,14.70
2019-05-11T20:05:08.104Z,14.58
2019-05-11T20:08:31.647Z,14.64
2019-05-11T20:11:54.703Z,14.23
2019-05-11T20:15:18.826Z,14.11
2019-05-11T20:18:42.328Z,14.39
2019-05-11T20:22:05.519Z,14.15
2019-05-11T20:25:29.117Z,14.07
2019-05-11T20:28:52.414Z,14.12
2019-05-11T20:32:16.169Z,14.04
2019-05-11T20:35:39.331Z,14.00
2019-05-11T20:39:03.336Z,13.86
2019-05-11T20:42:30.248Z,13.56
2019-05-11T20:45:56.116Z,13.64
2019-05-11T20:49:18.457Z,13.46
2019-05-11T20:52:43.211Z,13.39
2019-05-11T20:56:08.423Z,13.43
2019-05-11T20:59:31.372Z,13.33
2019-05-11T21:02:54.550Z,13.19
2019-05-11T21:06:18.453Z,13.19
2019-05-11T21:09:41.637Z,13.35
2019-05-11T21:13:04.734Z,13.21
2019-05-11T21:16:27.825Z,13.00
2019-05-11T21:19:50.974Z,13.13
2019-05-11T21:23:14.114Z,13.28
2019-05-11T21:26:38.505Z,13.27
2019-05-11T21:30:02.181Z,13.23
2019-05-11T21:33:25.350Z,13.10
2019-05-11T21:36:48.544Z,12.93
2019-05-11T21:40:12.084Z,13.09
2019-05-11T21:43:37.645Z,12.89
2019-05-11T21:47:00.827Z,12.61
2019-05-11T21:50:23.899Z,12.57
2019-05-11T21:53:48.779Z,12.47
2019-05-11T21:57:11.911Z,12.35
2019-05-11T22:00:35.127Z,12.14
2019-05-11T22:04:00.147Z,12.20
2019-05-11T22:07:23.420Z,12.16
2019-05-11T22:10:46.627Z,12.27
2019-05-11T22:14:09.901Z,12.27
2019-05-11T22:17:32.967Z,12.16
2019-05-11T22:20:57.895Z,12.06
2019-05-11T22:24:21.071Z,11.84
2019-05-11T22:27:44.139Z,11.97
2019-05-11T22:31:07.824Z,11.67
2019-05-11T22:34:31.181Z,11.64
2019-05-11T22:37:54.197Z,11.52
2019-05-11T22:41:18.003Z,11.49
2019-05-11T22:44:42.048Z,11.25
2019-05-11T22:48:05.067Z,11.10
2019-05-11T22:51:28.785Z,11.21
2019-05-11T22:54:51.970Z,11.26
2019-05-11T22:58:15.086Z,11.32
2019-05-11T23:01:38.158Z,11.09
2019-05-11T23:05:01.407Z,10.91
2019-05-11T23:08:25.676Z,10.79
2019-05-11T23:11:49.021Z,10.81
2019-05-11T23:15:12.744Z,10.71
2019-05-11T23:18:35.859Z,10.53
2019-05-11T23:21:58.883Z,10.46
2019-05-11T23:25:22.211Z,10.33
2019-05-11T23:28:45.288Z,10.42
2019-05-11T23:32:09.079Z,10.27
2019-05-11T23:35:32.183Z,10.14
2019-05-11T23:38:55.440Z,10.22
2019-05-11T23:42:18.484Z,9.96
2019-05-11T23:45:41.668Z,9.97
2019-05-11T23:49:04.704Z,9.91
2019-05-11T23:52:29.520Z,9.75
2019-05-11T23:55:52.882Z,9.85
2019-05-11T23:59:15.931Z,9.96
